CheckWX is a tool to help pilots better visualize weather data.  It is not intended as a substitute for an official pre-flight weather briefing.

21:52:10 UTC

KGRB TAF
Green Bay-Austin Straubel International Airport
Green Bay, Wisconsin, USA
KGRB 191724Z 1918/2018 19004KT P6SM SCT040 BKN090 TEMPO 1918/1919 5SM -SHRA SCT030 FM192200 19003KT P6SM SCT040 BKN080 FM200600 21002KT 5SM BR SCT040 BKN080 FM201000 VRB03KT 1 1/2SM BR BKN010 FM201400 11004KT P6SM BKN050

Sep-19@
18:00 UTC

Sep-19 @ 18:00 UTC

Sep-19@
22:00 UTC

Sep-19 @ 22:00 UTC

KGRB 191724Z 1918/2018 19004KT P6SM SCT040 BKN090
Wind
  • 190° at 4 KTS
Cloud Levels
  • Scattered at 4,000' AGL
  • Broken at 9,000' AGL

Sep-19@
18:00 UTC

Sep-19 @ 18:00 UTC

Sep-19@
19:00 UTC

Sep-19 @ 19:00 UTC

TEMPO 1918/1919 5SM -SHRA SCT030

Expired

Conditions
Light Rain
Cloud Levels
  • Scattered at 3,000' AGL

Sep-19@
22:00 UTC

Sep-19 @ 22:00 UTC

Sep-20@
06:00 UTC

Sep-20 @ 06:00 UTC

FM192200 19003KT P6SM SCT040 BKN080

From

From Standard forecast or significant change

Wind
  • 190° at 3 KTS
Cloud Levels
  • Scattered at 4,000' AGL
  • Broken at 8,000' AGL

Sep-20@
06:00 UTC

Sep-20 @ 06:00 UTC

Sep-20@
10:00 UTC

Sep-20 @ 10:00 UTC

FM200600 21002KT 5SM BR SCT040 BKN080

From

From Standard forecast or significant change

Wind
  • 210° at 2 KTS
Conditions
Mist
Cloud Levels
  • Scattered at 4,000' AGL
  • Broken at 8,000' AGL

Sep-20@
10:00 UTC

Sep-20 @ 10:00 UTC

Sep-20@
14:00 UTC

Sep-20 @ 14:00 UTC

FM201000 VRB03KT 1 1/2SM BR BKN010

From

From Standard forecast or significant change

Wind
  • Variable at 3 KTS
Conditions
Mist
Cloud Levels
  • Broken at 1,000' AGL

Sep-20@
14:00 UTC

Sep-20 @ 14:00 UTC

Sep-20@
18:00 UTC

Sep-20 @ 18:00 UTC

FM201400 11004KT P6SM BKN050

From

From Standard forecast or significant change

Wind
  • 110° at 4 KTS
Cloud Levels
  • Broken at 5,000' AGL